Time;durP1;ratioP1;P1;durP2;ratioP2;P2;SDS_P1;SDS_P2;PMS_P1;PMS_P2;Temp;Humidity;BMP_temperature;BMP_pressure;BME280_temperature;BME280_humidity;BME280_pressure;Samples;Min_cycle;Max_cycle;Signal;HPM_P1;HPM_P2
2023/01/15 00:02:22;;;;;;;11.53;7.63;;;5.60;99.90;;;5.48;65.65;99636.94;5103242;28;20196;-65
2023/01/15 00:04:52;;;;;;;10.30;7.20;;;5.70;99.90;;;5.48;65.17;99624.16;5114075;28;20648;-67
2023/01/15 00:07:20;;;;;;;11.73;7.23;;;5.60;99.90;;;5.52;65.52;99617.34;5110948;28;20220;-66
2023/01/15 00:09:50;;;;;;;12.40;7.10;;;5.70;99.90;;;5.51;65.78;99618.22;5100579;28;20918;-65
2023/01/15 00:12:19;;;;;;;9.83;6.43;;;5.70;99.90;;;5.53;65.03;99596.09;5112662;28;20211;-67
2023/01/15 00:14:48;;;;;;;11.60;7.50;;;5.70;99.90;;;5.53;65.16;99589.28;5107355;28;20208;-65
2023/01/15 00:17:16;;;;;;;11.17;7.37;;;5.70;99.90;;;5.54;64.93;99592.66;5104575;28;20240;-66
2023/01/15 00:19:46;;;;;;;11.03;7.27;;;5.70;99.90;;;5.52;64.88;99582.47;5113570;28;20460;-67
2023/01/15 00:22:15;;;;;;;10.93;6.90;;;5.70;99.90;;;5.53;64.96;99575.66;5113845;28;20261;-64
2023/01/15 00:27:39;;;;;;;11.93;6.83;;;5.70;99.90;;;5.55;65.05;99579.03;5111465;28;20628;-66
2023/01/15 00:30:12;;;;;;;13.20;7.73;;;5.70;99.90;;;5.54;64.59;99572.22;5107848;28;20533;-66
2023/01/15 00:32:41;;;;;;;13.00;7.40;;;5.70;99.90;;;5.53;64.97;99570.53;5108155;28;20257;-66
2023/01/15 00:35:14;;;;;;;13.20;7.37;;;5.70;99.90;;;5.51;64.84;99549.22;5100453;28;20208;-66
2023/01/15 00:37:43;;;;;;;10.60;6.87;;;5.70;99.90;;;5.50;64.83;99558.59;5110765;28;20307;-66
2023/01/15 00:40:13;;;;;;;14.43;7.87;;;5.70;99.90;;;5.49;64.94;99564.56;5112644;28;20196;-65
2023/01/15 00:42:43;;;;;;;10.43;7.17;;;5.70;99.90;;;5.47;64.77;99544.97;5112596;28;20225;-67
2023/01/15 00:45:21;;;;;;;11.30;7.10;;;5.70;99.90;;;5.44;64.92;99547.50;5096408;27;20549;-65
2023/01/15 00:47:50;;;;;;;11.97;7.47;;;5.60;99.90;;;5.43;65.03;99545.81;5112310;28;20548;-66
2023/01/15 00:50:19;;;;;;;11.33;7.17;;;5.60;99.90;;;5.42;65.12;99516.88;5108048;28;20204;-65
2023/01/15 00:52:47;;;;;;;11.87;7.77;;;5.60;99.90;;;5.37;65.50;99535.56;5107929;28;20207;-64
2023/01/15 00:55:16;;;;;;;9.73;6.77;;;5.60;99.90;;;5.39;65.31;99529.63;5112819;28;20200;-65
2023/01/15 00:57:46;;;;;;;11.57;7.00;;;5.60;99.90;;;5.38;65.19;99527.94;5110245;28;20717;-66
2023/01/15 01:00:15;;;;;;;11.80;7.27;;;5.60;99.90;;;5.40;65.11;99525.38;5110112;28;20824;-67
2023/01/15 01:02:44;;;;;;;10.27;6.67;;;5.50;99.90;;;5.39;65.12;99521.13;5109208;28;20237;-66
2023/01/15 01:05:12;;;;;;;10.60;6.67;;;5.50;99.90;;;5.37;64.67;99515.13;5109395;28;20565;-67
2023/01/15 01:07:41;;;;;;;10.33;7.17;;;5.50;99.90;;;5.36;65.10;99516.00;5109182;28;20224;-66
2023/01/15 01:10:10;;;;;;;9.77;6.53;;;5.50;99.90;;;5.33;65.24;99527.91;5102167;28;20722;-68
2023/01/15 01:12:39;;;;;;;11.10;7.07;;;5.50;99.90;;;5.31;65.45;99503.22;5112960;28;20275;-65
2023/01/15 01:15:10;;;;;;;10.40;6.60;;;5.50;99.90;;;5.28;65.18;99506.63;5106353;27;20669;-67
2023/01/15 01:17:39;;;;;;;12.43;7.20;;;5.50;99.90;;;5.23;65.28;99500.66;5106574;28;20227;-67
2023/01/15 01:20:10;;;;;;;9.90;6.37;;;5.40;99.90;;;5.23;65.32;99513.44;5105495;28;20610;-66
2023/01/15 01:22:38;;;;;;;8.83;6.13;;;5.40;99.90;;;5.22;65.37;99514.28;5098402;28;20204;-67
2023/01/15 01:25:08;;;;;;;8.90;5.77;;;5.40;99.90;;;5.22;65.68;99503.22;5108670;28;20200;-65
2023/01/15 01:27:37;;;;;;;10.03;6.03;;;5.40;99.90;;;5.22;66.08;99515.97;5110816;28;20211;-68
2023/01/15 01:30:09;;;;;;;9.10;5.37;;;5.40;99.90;;;5.21;65.54;99507.47;5110174;28;20305;-67
2023/01/15 01:32:37;;;;;;;9.97;5.73;;;5.30;99.90;;;5.18;65.38;99510.00;5097204;28;20244;-66
2023/01/15 01:35:06;;;;;;;11.03;6.03;;;5.40;99.90;;;5.18;65.08;99496.41;5110832;28;20250;-67
2023/01/15 01:37:35;;;;;;;8.63;5.90;;;5.30;99.90;;;5.17;65.42;99500.66;5111075;28;20218;-66
2023/01/15 01:40:05;;;;;;;10.13;6.00;;;5.30;99.90;;;5.13;65.23;99488.72;5110510;28;20301;-65
2023/01/15 01:42:34;;;;;;;9.73;5.47;;;5.30;99.90;;;5.12;65.53;99486.16;5112430;28;20196;-67
2023/01/15 01:45:16;;;;;;;8.20;5.57;;;5.30;99.90;;;5.08;65.37;99480.19;5110349;28;20506;-67
2023/01/15 01:47:45;;;;;;;8.03;5.43;;;5.30;99.90;;;5.09;65.22;99470.00;5111313;28;20216;-63
2023/01/15 01:50:14;;;;;;;9.20;5.43;;;5.30;99.90;;;5.10;65.52;99468.28;5109478;28;20216;-65
2023/01/15 01:52:49;;;;;;;7.40;5.57;;;5.30;99.90;;;5.07;66.07;99456.38;5102196;28;20244;-64
2023/01/15 01:55:20;;;;;;;9.37;5.60;;;5.20;99.90;;;5.05;65.33;99462.34;5110006;28;20260;-66
2023/01/15 01:57:50;;;;;;;7.33;5.30;;;5.20;99.90;;;5.02;65.75;99442.75;5106324;28;20264;-66
2023/01/15 02:00:22;;;;;;;7.10;5.23;;;5.20;99.90;;;5.00;65.45;99431.69;5106898;28;20294;-65
2023/01/15 02:02:52;;;;;;;8.80;5.60;;;5.20;99.90;;;4.97;65.56;99416.38;5111542;28;20678;-65
2023/01/15 02:05:30;;;;;;;7.27;4.80;;;5.10;99.90;;;4.95;65.39;99409.56;5102544;28;20199;-66
2023/01/15 02:07:59;;;;;;;9.73;5.70;;;5.10;99.90;;;4.92;65.56;99428.28;5110265;28;20224;-65
2023/01/15 02:10:28;;;;;;;9.27;5.27;;;5.10;99.90;;;4.88;65.72;99430.81;5110076;28;20242;-65
2023/01/15 02:13:03;;;;;;;8.30;5.63;;;5.00;99.90;;;4.83;65.89;99424.00;5099231;28;20200;-66
2023/01/15 02:15:40;;;;;;;9.60;5.20;;;5.00;99.90;;;4.80;66.21;99438.47;5103873;28;20226;-65
2023/01/15 02:18:18;;;;;;;10.80;5.80;;;4.90;99.90;;;4.76;65.90;99444.41;5106977;28;20266;-65
2023/01/15 02:20:51;;;;;;;8.63;5.97;;;5.00;99.90;;;4.74;66.02;99420.59;5100971;28;20292;-67
2023/01/15 02:23:45;;;;;;;7.53;5.10;;;4.90;99.90;;;4.73;66.36;99431.66;5109609;28;20300;-65
2023/01/15 02:27:04;;;;;;;8.60;5.37;;;4.90;99.90;;;4.73;66.55;99417.19;5109973;28;20247;-66
2023/01/15 02:29:49;;;;;;;9.23;5.13;;;4.90;99.90;;;4.76;66.14;99408.69;5097778;28;20232;-66
2023/01/15 02:32:28;;;;;;;8.53;5.30;;;5.00;99.90;;;4.75;65.85;99410.41;5107016;28;20207;-64
2023/01/15 02:35:06;;;;;;;8.17;5.03;;;5.00;99.90;;;4.76;66.00;99419.75;5109341;28;20191;-65
2023/01/15 02:37:41;;;;;;;8.73;5.00;;;4.90;99.90;;;4.75;65.81;99418.06;5110480;28;20199;-65
2023/01/15 02:40:12;;;;;;;7.57;5.33;;;5.00;99.90;;;4.75;66.02;99412.06;5105060;28;20199;-67
2023/01/15 02:42:46;;;;;;;6.90;4.83;;;4.90;99.90;;;4.73;65.88;99403.56;5109241;28;20199;-64
2023/01/15 02:45:22;;;;;;;10.10;5.40;;;5.00;99.90;;;4.75;65.73;99401.84;5108985;28;20200;-65
2023/01/15 02:47:54;;;;;;;9.67;5.17;;;4.90;99.90;;;4.72;65.71;99405.28;5105870;28;20203;-66
2023/01/15 02:50:27;;;;;;;7.33;5.07;;;4.90;99.90;;;4.73;65.89;99404.44;5107922;28;20203;-66
2023/01/15 02:53:04;;;;;;;8.10;5.20;;;4.90;99.90;;;4.73;65.44;99373.81;5110957;28;20204;-66
2023/01/15 02:55:38;;;;;;;8.00;5.10;;;5.00;99.90;;;4.72;65.73;99384.88;5110085;28;20548;-66
2023/01/15 02:58:17;;;;;;;7.57;5.13;;;4.90;99.90;;;4.70;65.93;99368.69;5107196;28;20200;-64
2023/01/15 03:00:52;;;;;;;8.90;5.67;;;4.90;99.90;;;4.71;65.40;99333.81;5100447;28;20585;-65
2023/01/15 03:03:31;;;;;;;8.53;5.23;;;4.90;99.90;;;4.70;65.24;99366.13;5109522;28;20238;-64
2023/01/15 03:06:05;;;;;;;7.07;4.97;;;4.90;99.90;;;4.69;65.56;99356.78;5109794;28;20195;-67
2023/01/15 03:08:34;;;;;;;8.30;5.33;;;4.90;99.90;;;4.69;65.32;99345.75;5108312;28;20483;-65
2023/01/15 03:11:08;;;;;;;8.93;5.10;;;4.90;99.90;;;4.69;65.16;99336.38;5102638;28;20208;-67
2023/01/15 03:13:48;;;;;;;8.80;5.60;;;4.90;99.90;;;4.69;65.06;99338.94;5109914;28;20200;-65
2023/01/15 03:16:35;;;;;;;8.97;5.27;;;4.90;99.90;;;4.71;65.12;99319.34;5108745;28;20203;-65
2023/01/15 03:19:18;;;;;;;8.77;5.63;;;4.90;99.90;;;4.73;65.50;99332.97;5110199;28;20196;-65
2023/01/15 03:21:51;;;;;;;8.73;5.13;;;4.90;99.90;;;4.71;64.96;99309.13;5104636;28;20199;-66
2023/01/15 03:24:31;;;;;;;7.60;4.93;;;5.00;99.90;;;4.73;65.15;99329.56;5104946;28;20617;-66
2023/01/15 03:27:02;;;;;;;7.33;4.90;;;4.90;99.90;;;4.77;65.21;99341.47;5096048;28;20195;-65
2023/01/15 03:29:36;;;;;;;6.87;5.13;;;4.90;99.90;;;4.77;64.59;99332.13;5108254;28;20895;-65
2023/01/15 03:32:06;;;;;;;9.27;5.10;;;5.00;99.90;;;4.77;64.75;99334.66;5107341;28;20204;-64
2023/01/15 03:34:40;;;;;;;8.23;5.03;;;5.00;99.90;;;4.78;64.78;99310.00;5108985;28;20245;-66
2023/01/15 03:37:09;;;;;;;8.73;5.63;;;5.00;99.90;;;4.78;64.62;99318.50;5103435;28;20205;-65
2023/01/15 03:39:37;;;;;;;8.27;4.87;;;4.90;99.90;;;4.80;64.81;99321.91;5107288;28;20519;-67
2023/01/15 03:42:20;;;;;;;8.07;5.00;;;5.00;99.90;;;4.79;64.66;99287.06;5094371;28;20598;-66
2023/01/15 03:45:00;;;;;;;9.20;5.30;;;5.00;99.90;;;4.78;64.39;99303.19;5103113;28;20609;-65
2023/01/15 03:47:39;;;;;;;7.57;4.80;;;5.00;99.90;;;4.81;64.53;99289.59;5106791;28;20207;-67
2023/01/15 03:50:22;;;;;;;8.27;5.30;;;5.00;99.90;;;4.82;64.83;99301.50;5104871;28;20298;-66
2023/01/15 03:53:02;;;;;;;10.30;5.60;;;5.00;99.90;;;4.82;64.21;99304.91;5107990;28;20205;-66
2023/01/15 03:55:41;;;;;;;8.03;4.90;;;5.00;99.90;;;4.83;64.87;99290.44;5114043;28;20200;-66
2023/01/15 03:58:14;;;;;;;7.97;4.50;;;5.00;99.90;;;4.86;63.93;99300.66;5105745;28;20208;-66
2023/01/15 04:00:48;;;;;;;9.10;5.00;;;5.00;99.90;;;4.87;64.45;99286.19;5110725;28;20239;-65
2023/01/15 04:03:19;;;;;;;7.30;4.73;;;5.00;99.90;;;4.88;63.89;99259.81;5101555;28;20226;-65
2023/01/15 04:05:49;;;;;;;8.03;5.00;;;5.10;99.90;;;4.87;63.64;99270.88;5098380;28;20204;-66
2023/01/15 04:08:19;;;;;;;7.97;4.77;;;5.00;99.90;;;4.87;64.36;99276.81;5111504;28;20235;-64
2023/01/15 04:10:53;;;;;;;7.83;4.73;;;5.10;99.90;;;4.84;64.24;99252.16;5111233;28;20270;-66
2023/01/15 04:13:22;;;;;;;8.90;4.93;;;5.10;99.90;;;4.84;64.21;99241.94;5109478;28;20230;-65
2023/01/15 04:15:52;;;;;;;7.30;4.87;;;5.00;99.90;;;4.84;64.53;99256.41;5111156;28;20208;-66
2023/01/15 04:18:21;;;;;;;7.40;5.07;;;5.00;99.90;;;4.83;64.46;99262.38;5111738;28;20235;-66
2023/01/15 04:20:50;;;;;;;7.50;4.83;;;5.00;99.90;;;4.81;64.60;99259.81;5112954;28;20196;-66
2023/01/15 04:23:18;;;;;;;6.83;5.03;;;5.00;99.90;;;4.80;64.36;99219.84;5106818;28;20200;-66
2023/01/15 04:25:47;;;;;;;7.90;4.90;;;5.00;99.90;;;4.84;64.27;99247.03;5111580;28;20204;-65
2023/01/15 04:28:15;;;;;;;7.97;4.40;;;5.10;99.90;;;4.85;64.52;99235.97;5109807;28;20496;-66
2023/01/15 04:30:45;;;;;;;7.27;5.07;;;5.00;99.90;;;4.84;64.02;99215.56;5104866;28;20259;-65
2023/01/15 04:33:15;;;;;;;9.97;4.60;;;5.10;99.90;;;4.83;64.31;99227.50;5105266;28;20720;-66
2023/01/15 04:35:45;;;;;;;7.50;4.40;;;5.00;99.90;;;4.81;64.04;99200.25;5112165;28;20640;-66
2023/01/15 04:38:14;;;;;;;4.87;4.10;;;5.00;99.90;;;4.75;63.58;99188.38;5112515;28;20200;-66
2023/01/15 04:46:14;;;;;;;6.03;4.13;;;5.00;99.90;;;4.78;63.69;99211.31;5111961;28;20211;-66
2023/01/15 04:48:44;;;;;;;5.03;3.60;;;5.00;99.90;;;4.80;63.67;99193.47;5110596;28;20203;-63
2023/01/15 04:51:12;;;;;;;7.23;3.93;;;5.00;99.90;;;4.80;64.11;99173.91;5111103;28;20691;-67
2023/01/15 04:53:40;;;;;;;4.63;3.70;;;5.00;99.90;;;4.81;63.38;99179.84;5112563;28;20208;-67
2023/01/15 04:56:09;;;;;;;5.67;3.60;;;5.00;99.90;;;4.83;63.15;99179.00;5112855;28;20579;-65
2023/01/15 04:58:38;;;;;;;5.63;3.77;;;5.00;99.90;;;4.81;63.48;99185.78;5108842;28;20239;-65
2023/01/15 05:01:12;;;;;;;7.37;3.37;;;5.10;99.90;;;4.85;63.45;99178.97;5106781;28;20223;-64
2023/01/15 05:03:40;;;;;;;5.90;3.20;;;5.10;99.90;;;4.87;63.46;99181.53;5105441;28;20202;-66
2023/01/15 05:06:13;;;;;;;5.70;3.50;;;5.10;99.90;;;4.88;63.40;99173.88;5105883;28;20257;-66
2023/01/15 05:08:41;;;;;;;4.77;3.20;;;5.10;99.90;;;4.89;63.24;99165.34;5112206;28;20196;-67
2023/01/15 05:11:10;;;;;;;6.33;3.47;;;5.10;99.90;;;4.87;63.13;99166.22;5107141;28;20227;-65
2023/01/15 05:13:38;;;;;;;5.13;3.60;;;5.10;99.90;;;4.90;63.27;99154.31;5107257;28;20234;-65
2023/01/15 05:16:13;;;;;;;5.83;3.33;;;5.10;99.90;;;4.92;63.02;99162.78;5106725;28;20200;-65
2023/01/15 05:18:43;;;;;;;4.33;3.33;;;5.10;99.90;;;4.93;62.83;99161.09;5103947;28;20326;-64
2023/01/15 05:21:20;;;;;;;5.73;3.23;;;5.10;99.90;;;4.98;63.29;99156.84;5109748;28;20628;-66
2023/01/15 05:23:50;;;;;;;5.20;3.13;;;5.20;99.90;;;4.99;63.15;99140.66;5094166;28;20233;-65
2023/01/15 05:26:19;;;;;;;3.90;2.93;;;5.20;99.90;;;5.00;63.30;99137.25;5108489;28;20741;-66
2023/01/15 05:28:49;;;;;;;5.17;3.40;;;5.20;99.90;;;4.99;63.05;99125.34;5111416;28;20236;-65
2023/01/15 05:31:21;;;;;;;5.00;2.90;;;5.20;99.90;;;5.04;62.97;99152.56;5111220;28;20602;-65
2023/01/15 05:33:51;;;;;;;6.13;3.20;;;5.20;99.90;;;5.08;62.79;99143.16;5110480;28;20679;-66
2023/01/15 05:36:24;;;;;;;7.77;3.17;;;5.30;99.90;;;5.08;62.66;99140.59;5099680;27;20269;-63
2023/01/15 05:38:54;;;;;;;4.03;2.80;;;5.30;99.90;;;5.09;62.50;99142.31;5111141;28;20660;-63
2023/01/15 05:44:12;;;;;;;5.37;2.87;;;5.30;99.90;;;5.16;62.23;99154.22;5109363;28;20244;-65
2023/01/15 05:46:42;;;;;;;4.70;2.70;;;5.40;99.90;;;5.18;61.85;99139.72;5108866;28;20510;-66
2023/01/15 05:49:15;;;;;;;4.20;2.67;;;5.40;99.90;;;5.23;61.83;99157.59;5108904;28;20205;-66
2023/01/15 05:51:46;;;;;;;3.30;2.60;;;5.40;99.90;;;5.23;62.07;99158.44;5110369;28;20257;-66
2023/01/15 05:54:16;;;;;;;5.63;2.73;;;5.40;99.90;;;5.25;61.71;99151.59;5110113;28;20353;-66
2023/01/15 05:56:46;;;;;;;4.10;2.60;;;5.50;99.90;;;5.26;61.67;99143.09;5108876;28;20203;-67
2023/01/15 05:59:16;;;;;;;4.03;2.60;;;5.40;99.90;;;5.28;61.88;99138.84;5112144;28;20208;-61
2023/01/15 06:01:44;;;;;;;3.70;2.43;;;5.50;99.90;;;5.28;61.39;99128.63;5104921;28;20298;-64
2023/01/15 06:04:14;;;;;;;3.57;2.50;;;5.50;99.90;;;5.30;61.61;99134.56;5112696;28;20207;-64
2023/01/15 06:06:45;;;;;;;2.70;2.40;;;5.50;99.90;;;5.29;61.36;99134.56;5103624;28;20205;-64
2023/01/15 06:09:14;;;;;;;3.47;2.53;;;5.50;99.90;;;5.29;61.91;99121.78;5111198;28;20549;-64
2023/01/15 06:11:42;;;;;;;5.87;2.20;;;5.50;99.90;;;5.31;61.99;99120.09;5106141;28;20764;-66
2023/01/15 06:14:12;;;;;;;2.87;2.30;;;5.50;99.90;;;5.30;61.99;99113.28;5108015;28;20208;-64
2023/01/15 06:16:41;;;;;;;4.17;2.60;;;5.50;99.90;;;5.30;61.82;99116.69;5110154;28;20231;-64
2023/01/15 06:19:11;;;;;;;3.03;2.10;;;5.60;99.90;;;5.32;62.48;99104.75;5110163;28;20204;-64
2023/01/15 06:21:41;;;;;;;3.03;2.53;;;5.50;99.90;;;5.30;62.27;99108.16;5110085;28;20622;-65
2023/01/15 06:24:11;;;;;;;4.17;2.37;;;5.50;99.90;;;5.30;62.18;99098.81;5110891;28;20237;-64
2023/01/15 06:26:39;;;;;;;4.67;2.70;;;5.50;99.90;;;5.28;62.33;99092.00;5103693;28;20262;-64
2023/01/15 06:29:08;;;;;;;4.77;2.10;;;5.50;99.90;;;5.27;62.45;99088.63;5107237;28;20258;-63
2023/01/15 06:31:36;;;;;;;3.93;2.33;;;5.50;99.90;;;5.27;62.61;99096.28;5104117;28;20243;-66
2023/01/15 06:34:05;;;;;;;4.07;2.30;;;5.50;99.90;;;5.27;62.50;99087.78;5111982;28;20200;-64
2023/01/15 06:36:34;;;;;;;2.47;2.07;;;5.50;99.90;;;5.29;62.08;99089.44;5108389;28;20199;-65
2023/01/15 06:39:02;;;;;;;3.47;2.30;;;5.50;99.90;;;5.31;62.37;99097.97;5110103;28;20212;-64
2023/01/15 06:47:20;;;;;;;3.10;2.17;;;5.50;99.90;;;5.36;62.62;99107.28;5105366;28;20357;-66
2023/01/15 06:49:51;;;;;;;2.93;2.03;;;5.60;99.90;;;5.38;62.70;99096.22;5103108;28;20221;-64
2023/01/15 06:52:20;;;;;;;2.73;2.10;;;5.60;99.90;;;5.40;63.03;99085.97;5116803;28;20211;-66
2023/01/15 06:54:49;;;;;;;3.40;2.07;;;5.60;99.90;;;5.43;62.70;99084.25;5120959;28;20204;-69
2023/01/15 06:57:19;;;;;;;2.97;1.90;;;5.60;99.90;;;5.44;63.47;99075.72;5118155;28;20254;-67
2023/01/15 06:59:48;;;;;;;2.83;2.10;;;5.60;99.90;;;5.46;63.36;99071.47;5124843;28;20223;-67
2023/01/15 07:02:17;;;;;;;2.70;1.83;;;5.60;99.90;;;5.44;62.99;99069.78;5124430;28;20204;-67
2023/01/15 07:04:46;;;;;;;3.97;2.00;;;5.60;99.90;;;5.49;64.00;99088.50;5121494;28;20200;-69
2023/01/15 07:07:17;;;;;;;4.40;2.27;;;5.70;99.90;;;5.49;64.36;99075.72;5122692;28;20208;-69
2023/01/15 07:09:45;;;;;;;3.30;2.10;;;5.70;99.90;;;5.48;64.50;99092.72;5116756;28;20268;-70
2023/01/15 07:12:14;;;;;;;4.00;2.10;;;5.60;99.90;;;5.43;64.42;99058.72;5107167;28;20424;-69
2023/01/15 07:14:44;;;;;;;2.57;2.03;;;5.60;99.90;;;5.44;64.61;99074.88;5104918;28;20272;-66
2023/01/15 07:17:13;;;;;;;2.87;1.97;;;5.60;99.90;;;5.42;65.01;99069.78;5107860;28;20319;-66
2023/01/15 07:19:43;;;;;;;2.80;2.27;;;5.50;99.90;;;5.41;64.91;99072.34;5103763;28;20273;-65
2023/01/15 07:22:12;;;;;;;4.03;2.10;;;5.60;99.90;;;5.40;65.51;99073.22;5101210;28;20200;-65
2023/01/15 07:24:41;;;;;;;4.53;2.10;;;5.60;99.90;;;5.40;65.59;99075.75;5099079;28;20204;-65
2023/01/15 07:27:09;;;;;;;2.83;1.90;;;5.60;99.90;;;5.39;65.34;99066.41;5107187;28;20708;-65
2023/01/15 07:29:38;;;;;;;3.20;2.10;;;5.60;99.90;;;5.39;65.58;99057.03;5100337;28;20560;-63
2023/01/15 07:32:08;;;;;;;2.57;1.93;;;5.60;99.90;;;5.37;65.67;99063.00;5102585;28;20646;-64
2023/01/15 07:34:36;;;;;;;3.23;1.83;;;5.60;99.90;;;5.40;65.82;99058.72;5100798;28;20270;-65
2023/01/15 07:37:05;;;;;;;3.33;2.20;;;5.60;99.90;;;5.37;66.09;99042.56;5112332;28;20203;-64
2023/01/15 07:39:33;;;;;;;1.90;1.67;;;5.60;99.90;;;5.39;65.70;99046.81;5112333;28;20259;-65
2023/01/15 07:50:32;;;;;;;3.37;2.00;;;5.60;99.90;;;5.43;66.37;99047.66;5100207;28;20636;-66
2023/01/15 07:53:00;;;;;;;2.40;2.00;;;5.70;99.90;;;5.45;66.14;99035.69;5111195;28;20212;-65
2023/01/15 07:55:29;;;;;;;3.00;2.07;;;5.70;99.90;;;5.46;66.37;99029.75;5102004;28;20208;-69
2023/01/15 07:57:58;;;;;;;3.17;2.17;;;5.70;99.90;;;5.48;66.48;99035.69;5103894;28;20212;-71
2023/01/15 08:00:26;;;;;;;2.67;2.00;;;5.70;99.90;;;5.50;66.57;99029.72;5112347;28;20656;-71
2023/01/15 08:02:56;;;;;;;2.57;2.00;;;5.70;99.90;;;5.52;66.73;99035.66;5103785;28;20281;-69
2023/01/15 08:05:26;;;;;;;1.97;1.50;;;5.80;99.90;;;5.55;67.00;99034.78;5108132;28;20220;-72
2023/01/15 08:07:54;;;;;;;3.77;1.80;;;5.80;99.90;;;5.58;66.56;99042.41;5114012;28;20204;-72
2023/01/15 08:10:24;;;;;;;2.97;2.07;;;5.80;99.90;;;5.60;66.86;99038.16;5114043;28;20204;-70
2023/01/15 08:15:42;;;;;;;2.40;1.60;;;5.90;99.90;;;5.67;67.16;99026.16;5111936;28;20233;-71
2023/01/15 08:18:12;;;;;;;2.67;1.50;;;5.90;99.90;;;5.72;67.15;99038.06;5071632;28;1124998;-69
2023/01/15 08:20:41;;;;;;;2.43;1.93;;;5.90;99.90;;;5.72;66.88;99040.59;5103996;28;20231;-75
2023/01/15 08:23:10;;;;;;;5.07;2.07;;;5.90;99.90;;;5.76;67.25;99031.22;5108597;28;20235;-71
2023/01/15 08:25:38;;;;;;;6.43;2.60;;;6.00;99.90;;;5.79;67.60;99026.06;5111926;28;20262;-71
2023/01/15 08:28:07;;;;;;;2.27;2.00;;;6.00;99.90;;;5.79;67.42;99026.91;5112844;28;20249;-68
2023/01/15 08:30:35;;;;;;;3.17;1.63;;;6.00;99.90;;;5.82;67.41;99034.56;5107226;28;20645;-70
2023/01/15 08:33:04;;;;;;;2.27;1.73;;;6.00;99.90;;;5.82;67.61;99023.50;5111869;28;20651;-70
2023/01/15 08:35:34;;;;;;;3.17;2.07;;;6.00;99.90;;;5.85;67.70;99027.72;5109480;28;20237;-71
2023/01/15 08:38:06;;;;;;;2.87;1.80;;;6.00;99.90;;;5.89;68.09;99024.25;5106427;28;20200;-68
2023/01/15 08:40:57;;;;;;;2.00;1.60;;;6.10;99.90;;;5.92;67.66;99031.91;5107013;28;20652;-66
2023/01/15 08:43:24;;;;;;;2.70;1.93;;;6.10;99.90;;;5.94;67.61;99022.56;5096190;28;20203;-68
2023/01/15 08:45:52;;;;;;;3.17;1.80;;;6.10;99.90;;;5.94;67.58;99023.41;5106300;28;20778;-69
2023/01/15 08:48:21;;;;;;;2.53;1.73;;;6.10;99.90;;;5.97;67.66;99012.31;5109571;28;20203;-70
2023/01/15 08:50:50;;;;;;;3.37;1.90;;;6.20;99.90;;;5.98;67.49;99027.63;5109867;28;20207;-68
2023/01/15 08:53:19;;;;;;;2.87;1.80;;;6.20;99.90;;;6.00;67.48;99019.94;5108025;28;20239;-69
2023/01/15 08:55:48;;;;;;;3.27;2.00;;;6.20;99.90;;;6.01;67.26;99014.81;5105962;27;20224;-71
2023/01/15 08:58:17;;;;;;;3.03;1.83;;;6.20;99.90;;;6.03;66.87;99009.69;5107901;28;20200;-70
2023/01/15 09:00:47;;;;;;;2.40;1.80;;;6.30;99.90;;;6.05;67.91;99015.63;5109432;28;20230;-70
2023/01/15 09:03:16;;;;;;;2.80;2.07;;;6.30;99.90;;;6.08;67.67;99017.31;5109929;28;20203;-68
2023/01/15 09:05:44;;;;;;;2.60;2.13;;;6.30;99.90;;;6.09;67.55;99017.31;5106886;28;20661;-69
2023/01/15 09:08:14;;;;;;;3.07;1.90;;;6.30;99.90;;;6.12;67.87;99014.72;5103510;28;20701;-68
2023/01/15 09:10:42;;;;;;;2.13;1.90;;;6.30;99.90;;;6.15;67.88;98998.47;5108184;28;20242;-70
2023/01/15 09:13:11;;;;;;;2.37;1.80;;;6.40;99.90;;;6.17;67.58;99012.09;5106271;28;20674;-67
2023/01/15 09:15:39;;;;;;;2.70;1.87;;;6.30;99.90;;;6.16;67.42;99006.16;5109863;28;20200;-69
2023/01/15 09:18:09;;;;;;;3.80;2.03;;;6.40;99.90;;;6.16;68.43;99003.59;5098864;28;20921;-69
2023/01/15 09:20:37;;;;;;;3.60;2.37;;;6.40;99.90;;;6.16;67.83;98998.47;5105165;28;20208;-67
2023/01/15 09:23:06;;;;;;;3.77;1.93;;;6.40;99.90;;;6.16;68.41;98998.47;5099053;28;20203;-69
2023/01/15 09:25:36;;;;;;;3.47;2.20;;;6.30;99.90;;;6.16;68.50;98993.34;5100594;28;20281;-68
2023/01/15 09:28:05;;;;;;;3.83;2.13;;;6.40;99.90;;;6.16;68.58;98995.06;5101438;28;20276;-68
2023/01/15 09:30:33;;;;;;;2.47;2.10;;;6.30;99.90;;;6.16;68.47;98990.81;5096015;28;20637;-66
2023/01/15 09:33:02;;;;;;;2.73;1.77;;;6.40;99.90;;;6.15;69.46;98993.34;5106766;28;20729;-69
2023/01/15 09:35:30;;;;;;;3.97;2.10;;;6.30;99.90;;;6.16;68.78;98985.69;5109594;28;20200;-67
2023/01/15 09:37:58;;;;;;;3.17;1.77;;;6.30;99.90;;;6.14;68.90;98986.56;5108316;28;20500;-69
2023/01/15 09:40:48;;;;;;;3.00;2.30;;;6.30;99.90;;;6.13;69.56;98992.53;5104946;28;20215;-70
2023/01/15 09:43:36;;;;;;;3.37;1.93;;;6.30;99.90;;;6.12;69.49;98988.31;5102637;28;20295;-68
2023/01/15 09:46:25;;;;;;;3.30;2.07;;;6.30;99.90;;;6.09;69.32;98978.94;5108556;28;20196;-68
2023/01/15 09:49:05;;;;;;;3.13;2.40;;;6.30;99.90;;;6.09;69.32;98983.22;5105110;28;20756;-67
2023/01/15 09:51:42;;;;;;;2.63;1.80;;;6.30;99.90;;;6.08;69.55;98986.66;5110079;28;20208;-67
2023/01/15 09:54:32;;;;;;;5.37;2.17;;;6.30;99.90;;;6.06;69.94;98984.09;5109495;28;20199;-68
2023/01/15 09:57:02;;;;;;;3.80;2.40;;;6.20;99.90;;;6.05;70.00;98973.00;5109871;28;20196;-67
2023/01/15 09:59:34;;;;;;;3.50;2.30;;;6.30;99.90;;;6.07;70.36;98980.66;5097574;28;20204;-69
2023/01/15 10:02:17;;;;;;;4.87;1.90;;;6.30;99.90;;;6.07;70.24;98972.97;5105086;28;20195;-71
2023/01/15 10:04:50;;;;;;;3.87;2.50;;;6.20;99.90;;;6.04;70.49;98965.38;5105725;27;20199;-69
2023/01/15 10:07:27;;;;;;;5.13;2.00;;;6.20;99.90;;;6.05;70.76;98969.63;5107420;28;20661;-72
2023/01/15 10:10:02;;;;;;;3.70;2.10;;;6.20;99.90;;;6.02;70.38;98959.41;5107118;28;20208;-67
2023/01/15 10:12:37;;;;;;;3.47;2.00;;;6.20;99.90;;;6.02;70.48;98964.53;5111722;28;20219;-68
2023/01/15 10:15:24;;;;;;;6.63;2.33;;;6.20;99.90;;;5.99;71.00;98956.88;5110181;28;20233;-67
2023/01/15 10:17:55;;;;;;;5.33;2.50;;;6.20;99.90;;;6.00;70.77;98971.34;5101288;28;20269;-66
2023/01/15 10:21:15;;;;;;;4.23;2.47;;;6.20;99.90;;;5.99;70.80;98944.94;5114100;28;20221;-64
2023/01/15 10:23:57;;;;;;;3.13;2.20;;;6.20;99.90;;;5.99;71.27;98956.88;5093943;28;20200;-67
2023/01/15 10:26:35;;;;;;;5.07;2.50;;;6.20;99.90;;;5.97;70.94;98933.91;5107811;28;20275;-67
2023/01/15 10:29:15;;;;;;;4.37;2.50;;;6.20;99.90;;;6.02;71.27;98944.06;5105366;28;20204;-70
2023/01/15 10:31:55;;;;;;;2.60;2.20;;;6.20;99.90;;;6.03;71.59;98955.97;5112829;28;20206;-69
2023/01/15 10:35:07;;;;;;;4.60;2.47;;;6.20;99.90;;;6.05;71.10;98936.38;5111192;28;20224;-72
2023/01/15 10:37:44;;;;;;;4.30;2.60;;;6.20;99.90;;;6.05;71.09;98941.50;5084529;28;20729;-69
2023/01/15 10:40:36;;;;;;;4.43;2.83;;;6.30;99.90;;;6.05;71.58;98923.59;5110739;28;20204;-69
2023/01/15 10:43:14;;;;;;;3.20;2.40;;;6.30;99.90;;;6.08;71.11;98928.66;5103424;28;20212;-69
2023/01/15 10:45:50;;;;;;;4.73;2.80;;;6.30;99.90;;;6.08;71.42;98936.34;5106379;28;20225;-65
2023/01/15 10:48:29;;;;;;;4.37;2.57;;;6.30;99.90;;;6.08;71.50;98908.22;5111548;28;20264;-64
2023/01/15 10:51:03;;;;;;;5.80;2.80;;;6.30;99.90;;;6.08;71.70;98931.22;5114470;28;20200;-65
2023/01/15 10:53:39;;;;;;;3.97;2.50;;;6.30;99.90;;;6.07;71.74;98929.50;5113911;28;20625;-65
2023/01/15 10:56:16;;;;;;;5.57;2.97;;;6.30;99.90;;;6.07;72.08;98924.41;5111344;28;20206;-67
2023/01/15 10:58:52;;;;;;;4.73;2.90;;;6.30;99.90;;;6.06;72.16;98922.72;5111640;28;20199;-66
2023/01/15 11:01:27;;;;;;;4.63;2.60;;;6.30;99.90;;;6.08;72.04;98927.81;5107591;28;20726;-67
2023/01/15 11:03:55;;;;;;;4.97;2.60;;;6.30;99.90;;;6.06;72.73;98912.47;5110546;28;20203;-65
2023/01/15 11:06:25;;;;;;;4.13;2.70;;;6.30;99.90;;;6.05;72.81;98916.75;5106089;28;20226;-66
2023/01/15 11:08:57;;;;;;;5.13;2.93;;;6.30;99.90;;;6.06;72.56;98912.47;5110414;28;20204;-67
2023/01/15 11:20:30;;;;;;;4.97;3.00;;;6.20;99.90;;;6.05;73.08;98911.66;5110719;28;20210;-67
2023/01/15 11:23:09;;;;;;;3.47;2.80;;;6.20;99.90;;;6.05;73.76;98914.19;5114078;28;20664;-67
2023/01/15 11:25:43;;;;;;;5.73;3.10;;;6.30;99.90;;;6.03;73.53;98886.94;5110932;28;20211;-67
2023/01/15 11:28:14;;;;;;;4.87;3.07;;;6.20;99.90;;;6.08;73.32;98899.69;5114719;28;20304;-65
2023/01/15 11:30:52;;;;;;;4.20;2.83;;;6.30;99.90;;;6.08;73.47;98895.44;5119252;28;20212;-68
2023/01/15 11:33:28;;;;;;;5.27;3.07;;;6.30;99.90;;;6.10;73.61;98893.69;5116265;28;20572;-69